createdAt,value
2023-04-05T00:01:14.186Z,3.90
2023-04-05T00:03:43.289Z,3.30
2023-04-05T00:06:13.144Z,3.42
2023-04-05T00:08:41.194Z,3.70
2023-04-05T00:11:08.638Z,4.00
2023-04-05T00:13:38.121Z,3.78
2023-04-05T00:16:08.200Z,3.67
2023-04-05T00:18:38.395Z,3.65
2023-04-05T00:21:06.070Z,3.80
2023-04-05T00:23:38.492Z,3.70
2023-04-05T00:26:08.051Z,3.60
2023-04-05T00:28:36.095Z,4.32
2023-04-05T00:31:04.802Z,4.18
2023-04-05T00:33:34.940Z,4.07
2023-04-05T00:36:19.029Z,4.00
2023-04-05T00:38:47.894Z,3.70
2023-04-05T00:41:15.386Z,4.05
2023-04-05T00:43:42.629Z,3.65
2023-04-05T00:46:10.206Z,4.10
2023-04-05T00:48:38.652Z,4.47
2023-04-05T00:51:09.479Z,4.43
2023-04-05T00:53:37.865Z,3.85
2023-04-05T00:56:08.412Z,3.67
2023-04-05T00:58:35.729Z,3.78
2023-04-05T01:01:23.834Z,4.10
2023-04-05T01:04:00.457Z,3.53
2023-04-05T01:06:34.114Z,4.10
2023-04-05T01:09:11.945Z,4.00
2023-04-05T01:11:42.614Z,3.42
2023-04-05T01:14:09.932Z,3.95
2023-04-05T01:16:41.891Z,3.83
2023-04-05T01:19:13.458Z,3.90
2023-04-05T01:21:53.757Z,4.43
2023-04-05T01:24:39.129Z,3.57
2023-04-05T01:27:19.926Z,4.13
2023-04-05T01:30:04.075Z,4.22
2023-04-05T01:32:40.438Z,4.40
2023-04-05T01:35:22.014Z,4.20
2023-04-05T01:38:00.473Z,4.00
2023-04-05T01:40:31.219Z,4.40
2023-04-05T01:43:04.182Z,4.30
2023-04-05T01:45:31.927Z,4.00
2023-04-05T01:48:01.690Z,3.90
2023-04-05T01:50:31.500Z,4.47
2023-04-05T01:53:03.432Z,4.63
2023-04-05T01:55:33.781Z,4.65
2023-04-05T01:58:01.255Z,4.37
2023-04-05T02:00:31.055Z,4.20
2023-04-05T02:02:58.508Z,4.40
2023-04-05T02:05:25.855Z,4.50
2023-04-05T02:07:53.171Z,3.97
2023-04-05T02:10:24.442Z,4.37
2023-04-05T02:12:51.851Z,4.30
2023-04-05T02:15:21.586Z,4.30
2023-04-05T02:17:48.884Z,4.33
2023-04-05T02:20:18.657Z,4.13
2023-04-05T02:22:46.388Z,4.67
2023-04-05T02:25:13.849Z,4.27
2023-04-05T02:27:41.381Z,4.60
2023-04-05T02:30:10.463Z,5.37
2023-04-05T02:32:37.785Z,4.60
2023-04-05T02:35:05.606Z,4.77
2023-04-05T02:37:32.867Z,4.90
2023-04-05T02:40:02.409Z,4.90
2023-04-05T02:42:29.653Z,4.00
2023-04-05T02:44:59.427Z,4.30
2023-04-05T02:47:28.904Z,5.00
2023-04-05T02:49:58.751Z,4.40
2023-04-05T02:52:32.301Z,4.67
2023-04-05T02:55:02.057Z,4.50
2023-04-05T02:57:29.313Z,4.90
2023-04-05T02:59:59.021Z,4.80
2023-04-05T03:02:27.200Z,4.57
2023-04-05T03:04:54.540Z,4.63
2023-04-05T03:07:25.905Z,4.47
2023-04-05T03:09:54.005Z,4.50
2023-04-05T03:12:23.725Z,4.47
2023-04-05T03:14:53.339Z,5.07
2023-04-05T03:17:22.779Z,4.50
2023-04-05T03:19:52.523Z,4.80
2023-04-05T03:22:19.754Z,4.43
2023-04-05T03:24:49.209Z,5.10
2023-04-05T03:27:18.880Z,5.10
2023-04-05T03:29:46.261Z,5.17
2023-04-05T03:32:18.121Z,5.17
2023-04-05T03:34:45.414Z,5.03
2023-04-05T03:37:12.660Z,5.10
2023-04-05T03:39:42.108Z,4.73
2023-04-05T03:42:09.412Z,4.90
2023-04-05T03:44:36.651Z,4.90
2023-04-05T03:47:06.134Z,5.63
2023-04-05T03:49:33.348Z,5.17
2023-04-05T03:52:00.678Z,5.10
2023-04-05T03:54:30.099Z,5.07
2023-04-05T03:56:57.426Z,5.90
2023-04-05T03:59:24.868Z,5.50
2023-04-05T04:01:52.225Z,4.90
2023-04-05T04:04:23.859Z,5.60
2023-04-05T04:06:51.621Z,6.43
2023-04-05T04:09:18.857Z,5.20
2023-04-05T04:11:46.094Z,5.43
2023-04-05T04:14:15.744Z,5.17
2023-04-05T04:16:43.086Z,4.93
2023-04-05T04:19:12.482Z,5.13
2023-04-05T04:21:39.819Z,5.80
2023-04-05T04:24:07.366Z,5.27
2023-04-05T04:26:37.590Z,5.00
2023-04-05T04:29:06.873Z,5.40
2023-04-05T04:31:38.578Z,5.73
2023-04-05T04:36:39.455Z,5.83
2023-04-05T04:39:07.089Z,6.05
2023-04-05T04:41:35.915Z,6.40
2023-04-05T04:44:06.097Z,6.63
2023-04-05T04:46:42.908Z,6.00
2023-04-05T04:49:10.752Z,6.97
2023-04-05T04:51:39.058Z,6.83
2023-04-05T04:54:07.388Z,6.83
2023-04-05T04:56:36.861Z,7.73
2023-04-05T04:59:04.221Z,7.83
2023-04-05T05:01:31.741Z,8.03
2023-04-05T05:03:59.293Z,8.00
2023-04-05T05:06:27.321Z,8.00
2023-04-05T05:08:57.151Z,7.63
2023-04-05T05:11:24.446Z,8.17
2023-04-05T05:13:53.963Z,7.97
2023-04-05T05:16:25.095Z,7.00
2023-04-05T05:18:52.496Z,7.47
2023-04-05T05:21:24.373Z,7.30
2023-04-05T05:23:51.777Z,7.17
2023-04-05T05:26:19.074Z,7.33
2023-04-05T05:28:48.858Z,7.27
2023-04-05T05:31:17.969Z,7.20
2023-04-05T05:33:50.092Z,7.47
2023-04-05T05:36:20.122Z,7.03
2023-04-05T05:38:47.722Z,7.03
2023-04-05T05:41:15.012Z,6.53
2023-04-05T05:43:44.469Z,6.20
2023-04-05T05:46:14.062Z,5.73
2023-04-05T05:48:41.950Z,6.67
2023-04-05T05:51:12.256Z,5.60
2023-04-05T05:53:45.182Z,5.53
2023-04-05T05:56:12.950Z,5.47
2023-04-05T05:58:40.593Z,5.50
2023-04-05T06:01:07.948Z,5.60
2023-04-05T06:03:37.836Z,5.20
2023-04-05T06:06:08.430Z,5.40
2023-04-05T06:08:35.839Z,6.27
2023-04-05T06:11:05.623Z,5.43
2023-04-05T06:13:32.950Z,5.57
2023-04-05T06:16:01.906Z,5.53
2023-04-05T06:18:29.250Z,5.57
2023-04-05T06:20:56.541Z,5.70
2023-04-05T06:23:25.899Z,5.33
2023-04-05T06:25:53.229Z,4.83
2023-04-05T06:28:22.949Z,5.40
2023-04-05T06:30:50.493Z,5.00
2023-04-05T06:33:17.833Z,4.87
2023-04-05T06:35:47.376Z,4.73
2023-04-05T06:38:14.693Z,6.20
2023-04-05T06:40:44.433Z,5.10
2023-04-05T06:43:13.823Z,5.30
2023-04-05T06:45:41.469Z,4.93
2023-04-05T06:48:13.919Z,4.88
2023-04-05T06:50:41.722Z,4.82
2023-04-05T06:53:13.379Z,4.97
2023-04-05T06:55:42.490Z,4.50
2023-04-05T06:58:09.795Z,4.15
2023-04-05T07:00:37.433Z,4.30
2023-04-05T07:03:07.259Z,3.70
2023-04-05T07:05:36.909Z,4.35
2023-04-05T07:08:04.468Z,4.80
2023-04-05T07:10:31.761Z,4.43
2023-04-05T07:12:59.020Z,4.20
2023-04-05T07:15:30.983Z,3.92
2023-04-05T07:18:00.932Z,3.90
2023-04-05T07:20:28.185Z,4.00
2023-04-05T07:22:55.457Z,3.50
2023-04-05T07:25:22.731Z,3.15
2023-04-05T07:27:50.132Z,3.20
2023-04-05T07:30:17.436Z,3.30
2023-04-05T07:32:45.057Z,3.50
2023-04-05T07:35:15.354Z,3.25
2023-04-05T07:37:47.045Z,3.25
2023-04-05T07:40:16.720Z,2.97
2023-04-05T07:42:44.092Z,3.08
2023-04-05T07:45:14.589Z,3.25
2023-04-05T07:47:42.172Z,2.80
2023-04-05T07:50:12.032Z,2.97
2023-04-05T07:52:39.284Z,2.95
2023-04-05T07:55:07.596Z,3.30
2023-04-05T07:57:37.520Z,2.60
2023-04-05T08:00:11.843Z,3.10
2023-04-05T08:02:42.542Z,2.97
2023-04-05T08:05:10.158Z,3.03
2023-04-05T08:07:37.519Z,2.85
2023-04-05T08:10:05.093Z,2.47
2023-04-05T08:12:32.655Z,2.50
2023-04-05T08:15:02.205Z,2.88
2023-04-05T08:17:30.129Z,3.38
2023-04-05T08:19:57.760Z,3.78
2023-04-05T08:22:33.235Z,2.95
2023-04-05T08:25:00.589Z,3.10
2023-04-05T08:27:27.853Z,2.60
2023-04-05T08:29:55.089Z,2.85
2023-04-05T08:32:22.383Z,2.78
2023-04-05T08:34:52.006Z,2.53
2023-04-05T08:37:19.262Z,2.60
2023-04-05T08:39:46.529Z,2.63
2023-04-05T08:42:29.925Z,2.50
2023-04-05T08:44:59.773Z,2.58
2023-04-05T08:47:30.277Z,2.22
2023-04-05T08:49:57.636Z,2.53
2023-04-05T08:52:25.952Z,2.17
2023-04-05T08:54:55.371Z,2.38
2023-04-05T08:57:27.445Z,2.03
2023-04-05T08:59:56.396Z,2.60
2023-04-05T09:02:25.021Z,2.40
2023-04-05T09:04:53.494Z,2.15
2023-04-05T09:07:21.735Z,2.40
2023-04-05T09:09:54.452Z,2.30
2023-04-05T09:12:26.773Z,2.50
2023-04-05T09:14:54.394Z,1.75
2023-04-05T09:17:25.087Z,2.13
2023-04-05T09:19:52.967Z,2.45
2023-04-05T09:22:20.679Z,2.13
2023-04-05T09:24:50.419Z,1.80
2023-04-05T09:27:19.432Z,2.50
2023-04-05T09:29:48.519Z,2.47
2023-04-05T09:32:21.467Z,2.40
2023-04-05T09:34:49.554Z,2.28
2023-04-05T09:37:19.957Z,2.28
2023-04-05T09:39:52.465Z,2.40
2023-04-05T09:42:23.095Z,2.33
2023-04-05T09:45:05.755Z,2.50
2023-04-05T09:47:39.550Z,2.35
2023-04-05T09:50:15.646Z,2.03
2023-04-05T09:52:46.301Z,2.40
2023-04-05T09:55:16.761Z,2.53
2023-04-05T09:57:44.301Z,2.42
2023-04-05T10:00:22.720Z,2.20
2023-04-05T10:02:53.886Z,2.45
2023-04-05T10:05:24.999Z,2.90
2023-04-05T10:07:56.079Z,2.50
2023-04-05T10:10:24.272Z,2.55
2023-04-05T10:12:52.077Z,2.58
2023-04-05T10:15:19.594Z,2.38
2023-04-05T10:17:58.736Z,2.40
2023-04-05T10:20:33.010Z,2.65
2023-04-05T10:23:09.236Z,2.70
2023-04-05T10:25:54.692Z,2.75
2023-04-05T10:28:36.265Z,2.03
2023-04-05T10:31:36.865Z,2.03
2023-04-05T10:34:06.363Z,2.60
2023-04-05T10:36:39.132Z,2.28
2023-04-05T10:39:28.360Z,2.40
2023-04-05T10:42:01.678Z,2.22
2023-04-05T10:44:34.244Z,2.30
2023-04-05T10:47:06.997Z,2.40
2023-04-05T10:49:42.713Z,2.50
2023-04-05T10:52:10.556Z,2.28
2023-04-05T10:54:38.687Z,2.33
2023-04-05T10:57:09.759Z,2.55
2023-04-05T10:59:43.617Z,2.10
2023-04-05T11:02:11.674Z,2.50
2023-04-05T11:04:42.365Z,1.90
2023-04-05T11:07:19.879Z,2.40
2023-04-05T11:09:55.901Z,2.05
2023-04-05T11:12:53.887Z,1.98
2023-04-05T11:15:27.773Z,2.17
2023-04-05T11:18:16.094Z,2.38
2023-04-05T11:20:48.920Z,2.50
2023-04-05T11:23:23.467Z,2.30
2023-04-05T11:26:04.291Z,2.03
2023-04-05T11:28:42.232Z,2.20
2023-04-05T11:31:23.004Z,2.33
2023-04-05T11:33:56.217Z,1.95
2023-04-05T11:36:38.543Z,2.10
2023-04-05T11:39:21.091Z,2.53
2023-04-05T11:42:04.321Z,1.90
2023-04-05T11:44:49.722Z,1.70
2023-04-05T11:47:18.170Z,1.63
2023-04-05T11:49:53.351Z,2.00
2023-04-05T11:52:21.839Z,2.47
2023-04-05T11:54:51.764Z,1.75
2023-04-05T11:57:20.932Z,1.73
2023-04-05T11:59:51.514Z,1.77
2023-04-05T12:02:19.312Z,1.90
2023-04-05T12:04:59.688Z,1.60
2023-04-05T12:07:37.028Z,1.70
2023-04-05T12:10:13.888Z,1.70
2023-04-05T12:12:42.651Z,1.80
2023-04-05T12:15:19.117Z,1.90
2023-04-05T12:17:50.592Z,1.55
2023-04-05T12:20:26.546Z,1.55
2023-04-05T12:22:55.959Z,1.67
2023-04-05T12:25:24.008Z,1.67
2023-04-05T12:27:51.218Z,1.65
2023-04-05T12:30:20.748Z,2.20
2023-04-05T12:32:56.406Z,1.90
2023-04-05T12:35:33.136Z,1.80
2023-04-05T12:38:05.603Z,1.70
2023-04-05T12:40:35.425Z,2.17
2023-04-05T12:43:04.315Z,1.92
2023-04-05T12:45:43.788Z,2.03
2023-04-05T12:48:23.918Z,2.10
2023-04-05T12:50:55.183Z,1.70
2023-04-05T12:53:29.440Z,1.70
2023-04-05T12:55:58.437Z,1.65
2023-04-05T12:58:36.694Z,1.70
2023-04-05T13:01:04.397Z,1.67
2023-04-05T13:03:32.201Z,1.67
2023-04-05T13:06:02.020Z,1.80
2023-04-05T13:08:29.601Z,2.00
2023-04-05T13:10:59.222Z,1.70
2023-04-05T13:13:26.529Z,2.55
2023-04-05T13:15:58.352Z,1.65
2023-04-05T13:18:25.701Z,1.90
2023-04-05T13:20:55.660Z,1.98
2023-04-05T13:23:23.356Z,1.75
2023-04-05T13:25:50.725Z,2.25
2023-04-05T13:28:18.072Z,2.17
2023-04-05T13:30:45.525Z,2.15
2023-04-05T13:33:15.388Z,2.20
2023-04-05T13:35:45.172Z,2.00
2023-04-05T13:38:12.682Z,2.25
2023-04-05T13:40:40.565Z,2.03
2023-04-05T13:43:08.610Z,2.45
2023-04-05T13:45:41.367Z,2.20
2023-04-05T13:48:08.755Z,2.15
2023-04-05T13:50:36.555Z,2.20
2023-04-05T13:53:03.863Z,3.75
2023-04-05T13:55:31.131Z,2.90
2023-04-05T13:57:58.380Z,2.08
2023-04-05T14:00:25.738Z,1.85
2023-04-05T14:02:53.131Z,2.50
2023-04-05T14:05:20.572Z,1.95
2023-04-05T14:07:49.936Z,2.22
2023-04-05T14:10:21.561Z,1.75
2023-04-05T14:15:16.197Z,2.60
2023-04-05T14:17:43.545Z,1.83
2023-04-05T14:20:11.779Z,2.40
2023-04-05T14:22:39.232Z,2.45
2023-04-05T14:25:08.333Z,2.00
2023-04-05T14:27:41.266Z,2.40
2023-04-05T14:30:11.364Z,2.25
2023-04-05T14:32:40.966Z,2.35
2023-04-05T14:35:09.038Z,3.83
2023-04-05T14:37:36.516Z,2.42
2023-04-05T14:40:04.165Z,2.10
2023-04-05T14:42:47.675Z,2.67
2023-04-05T14:45:23.400Z,2.28
2023-04-05T14:47:53.397Z,2.10
2023-04-05T14:50:20.801Z,2.35
2023-04-05T14:52:50.987Z,2.30
2023-04-05T14:55:23.005Z,2.22
2023-04-05T14:57:52.430Z,2.05
2023-04-05T15:00:22.379Z,2.47
2023-04-05T15:02:51.991Z,2.22
2023-04-05T15:05:19.483Z,2.03
2023-04-05T15:07:46.822Z,2.20
2023-04-05T15:10:18.440Z,2.03
2023-04-05T15:12:45.817Z,1.80
2023-04-05T15:15:15.605Z,2.53
2023-04-05T15:17:43.002Z,1.77
2023-04-05T15:20:10.768Z,2.22
2023-04-05T15:22:40.940Z,2.25
2023-04-05T15:25:09.465Z,2.50
2023-04-05T15:27:36.849Z,2.20
2023-04-05T15:30:04.548Z,2.30
2023-04-05T15:32:34.480Z,2.42
2023-04-05T15:35:02.105Z,2.10
2023-04-05T15:37:29.405Z,2.63
2023-04-05T15:39:56.882Z,2.97
2023-04-05T15:42:24.199Z,2.60
2023-04-05T15:44:51.583Z,2.40
2023-04-05T15:47:19.045Z,2.47
2023-04-05T15:49:46.337Z,2.60
2023-04-05T15:52:15.459Z,2.20
2023-04-05T15:54:44.299Z,2.22
2023-04-05T15:57:11.783Z,2.45
2023-04-05T15:59:41.507Z,2.22
2023-04-05T16:02:09.712Z,2.40
2023-04-05T16:04:39.203Z,2.40
2023-04-05T16:07:09.026Z,2.75
2023-04-05T16:09:38.689Z,2.60
2023-04-05T16:12:06.134Z,2.58
2023-04-05T16:14:33.489Z,2.45
2023-04-05T16:17:02.943Z,2.15
2023-04-05T16:19:30.430Z,2.67
2023-04-05T16:22:03.036Z,2.20
2023-04-05T16:24:31.450Z,2.50
2023-04-05T16:27:01.589Z,2.50
2023-04-05T16:29:28.918Z,2.70
2023-04-05T16:31:58.696Z,2.60
2023-04-05T16:34:26.494Z,2.50
2023-04-05T16:36:53.781Z,3.13
2023-04-05T16:39:25.546Z,2.45
2023-04-05T16:44:22.100Z,2.50
2023-04-05T16:46:49.478Z,2.83
2023-04-05T16:49:21.346Z,2.65
2023-04-05T16:51:48.886Z,2.80
2023-04-05T16:54:17.007Z,2.50
2023-04-05T16:56:46.687Z,2.80
2023-04-05T16:59:16.228Z,2.35
2023-04-05T17:01:46.356Z,2.55
2023-04-05T17:04:13.750Z,2.33
2023-04-05T17:06:41.351Z,2.30
2023-04-05T17:09:12.973Z,2.50
2023-04-05T17:11:40.252Z,2.85
2023-04-05T17:14:07.825Z,2.72
2023-04-05T17:16:35.256Z,2.55
2023-04-05T17:19:02.779Z,2.80
2023-04-05T17:21:30.266Z,2.90
2023-04-05T17:24:00.023Z,2.90
2023-04-05T17:26:27.804Z,3.28
2023-04-05T17:28:55.752Z,2.70
2023-04-05T17:31:23.205Z,2.38
2023-04-05T17:33:55.323Z,2.40
2023-04-05T17:36:22.701Z,2.85
2023-04-05T17:38:50.407Z,2.88
2023-04-05T17:41:21.334Z,2.70
2023-04-05T17:43:48.698Z,2.92
2023-04-05T17:46:18.388Z,3.20
2023-04-05T17:48:50.023Z,3.75
2023-04-05T17:51:20.892Z,3.10
2023-04-05T17:53:50.671Z,3.05
2023-04-05T17:56:17.964Z,3.17
2023-04-05T17:58:45.322Z,3.42
2023-04-05T18:01:16.121Z,3.45
2023-04-05T18:03:43.554Z,3.33
2023-04-05T18:06:13.831Z,2.70
2023-04-05T18:08:41.136Z,2.90
2023-04-05T18:11:08.539Z,3.10
2023-04-05T18:13:38.442Z,2.63
2023-04-05T18:16:08.294Z,3.28
2023-04-05T18:18:36.266Z,2.97
2023-04-05T18:21:04.272Z,2.72
2023-04-05T18:23:31.632Z,2.70
2023-04-05T18:25:59.015Z,3.40
2023-04-05T18:28:26.332Z,2.85
2023-04-05T18:30:53.624Z,3.20
2023-04-05T18:33:23.548Z,2.58
2023-04-05T18:35:51.809Z,3.47
2023-04-05T18:38:19.684Z,3.90
2023-04-05T18:40:47.549Z,3.70
2023-04-05T18:43:14.917Z,3.72
2023-04-05T18:45:44.889Z,3.83
2023-04-05T18:48:12.364Z,4.82
2023-04-05T18:50:39.712Z,4.75
2023-04-05T18:53:09.428Z,4.28
2023-04-05T18:55:37.337Z,4.55
2023-04-05T18:58:05.815Z,4.85
2023-04-05T19:00:33.147Z,4.13
2023-04-05T19:03:00.782Z,4.85
2023-04-05T19:05:30.490Z,3.90
2023-04-05T19:07:57.866Z,4.10
2023-04-05T19:10:25.241Z,4.45
2023-04-05T19:12:52.574Z,3.80
2023-04-05T19:15:19.847Z,3.90
2023-04-05T19:17:47.170Z,3.78
2023-04-05T19:20:14.565Z,4.15
2023-04-05T19:22:41.864Z,4.35
2023-04-05T19:25:09.527Z,4.63
2023-04-05T19:27:42.207Z,4.38
2023-04-05T19:30:09.901Z,4.57
2023-04-05T19:32:39.604Z,3.92
2023-04-05T19:35:12.547Z,3.65
2023-04-05T19:37:42.145Z,3.65
2023-04-05T19:40:12.369Z,4.38
2023-04-05T19:42:39.774Z,4.07
2023-04-05T19:45:13.058Z,4.30
2023-04-05T19:47:45.742Z,4.35
2023-04-05T19:50:38.199Z,4.38
2023-04-05T19:53:09.725Z,5.13
2023-04-05T19:55:41.049Z,4.78
2023-04-05T19:58:10.374Z,5.40
2023-04-05T20:00:37.703Z,5.45
2023-04-05T20:03:25.885Z,5.93
2023-04-05T20:05:53.806Z,6.47
2023-04-05T20:08:21.151Z,7.18
2023-04-05T20:10:52.083Z,8.20
2023-04-05T20:13:19.914Z,8.20
2023-04-05T20:15:54.874Z,7.38
2023-04-05T20:18:24.931Z,7.65
2023-04-05T20:20:54.086Z,7.38
2023-04-05T20:23:22.589Z,7.05
2023-04-05T20:25:51.151Z,7.35
2023-04-05T20:28:37.966Z,6.57
2023-04-05T20:31:08.616Z,6.70
2023-04-05T20:33:49.250Z,6.18
2023-04-05T20:36:19.928Z,5.60
2023-04-05T20:38:50.744Z,5.88
2023-04-05T20:41:19.853Z,5.73
2023-04-05T20:43:47.596Z,5.32
2023-04-05T20:46:18.072Z,5.30
2023-04-05T20:48:47.907Z,4.95
2023-04-05T20:51:18.404Z,5.60
2023-04-05T20:53:45.800Z,5.18
2023-04-05T20:56:16.050Z,5.00
2023-04-05T20:58:46.191Z,5.07
2023-04-05T21:01:13.696Z,4.68
2023-04-05T21:03:42.657Z,5.05
2023-04-05T21:06:10.676Z,4.82
2023-04-05T21:08:41.500Z,4.38
2023-04-05T21:11:11.941Z,5.47
2023-04-05T21:13:41.718Z,5.47
2023-04-05T21:16:11.481Z,5.38
2023-04-05T21:18:38.900Z,4.25
2023-04-05T21:21:06.279Z,4.97
2023-04-05T21:23:34.511Z,4.88
2023-04-05T21:26:05.710Z,4.63
2023-04-05T21:28:33.468Z,4.82
2023-04-05T21:31:03.363Z,5.00
2023-04-05T21:33:30.788Z,5.07
2023-04-05T21:35:58.083Z,4.78
2023-04-05T21:38:25.606Z,4.97
2023-04-05T21:40:55.613Z,5.07
2023-04-05T21:43:23.324Z,4.95
2023-04-05T21:45:52.505Z,5.25
2023-04-05T21:48:22.051Z,5.32
2023-04-05T21:50:49.390Z,5.35
2023-04-05T21:53:16.707Z,5.53
2023-04-05T21:55:43.999Z,4.90
2023-04-05T21:58:11.371Z,5.25
2023-04-05T22:00:38.791Z,5.22
2023-04-05T22:03:06.471Z,4.90
2023-04-05T22:05:37.905Z,5.20
2023-04-05T22:08:07.546Z,4.82
2023-04-05T22:10:38.035Z,5.85
2023-04-05T22:13:05.366Z,4.88
2023-04-05T22:15:33.107Z,4.93
2023-04-05T22:18:00.453Z,5.25
2023-04-05T22:20:27.840Z,5.00
2023-04-05T22:22:55.340Z,5.43
2023-04-05T22:25:22.693Z,5.13
2023-04-05T22:27:50.031Z,5.55
2023-04-05T22:30:20.445Z,5.90
2023-04-05T22:32:48.608Z,5.40
2023-04-05T22:35:16.105Z,6.03
2023-04-05T22:37:43.419Z,6.07
2023-04-05T22:40:11.735Z,5.18
2023-04-05T22:42:44.014Z,5.80
2023-04-05T22:45:11.479Z,6.45
2023-04-05T22:47:38.866Z,6.30
2023-04-05T22:50:07.265Z,5.73
2023-04-05T22:52:37.000Z,5.87
2023-04-05T22:55:05.621Z,6.07
2023-04-05T22:57:35.249Z,5.40
2023-04-05T23:00:07.888Z,5.25
2023-04-05T23:02:35.423Z,5.43
2023-04-05T23:05:02.857Z,5.82
2023-04-05T23:07:30.479Z,5.18
2023-04-05T23:09:57.779Z,5.60
2023-04-05T23:12:29.368Z,5.40
2023-04-05T23:14:58.360Z,5.50
2023-04-05T23:17:25.684Z,5.28
2023-04-05T23:19:55.376Z,5.10
2023-04-05T23:22:22.655Z,4.60
2023-04-05T23:24:50.030Z,5.28
2023-04-05T23:27:17.419Z,5.50
2023-04-05T23:29:44.737Z,5.40
2023-04-05T23:32:13.682Z,5.10
2023-04-05T23:34:41.425Z,5.17
2023-04-05T23:37:08.711Z,5.60
2023-04-05T23:39:36.271Z,4.90
2023-04-05T23:42:04.704Z,5.50
2023-04-05T23:44:35.726Z,5.17
2023-04-05T23:47:05.089Z,5.72
2023-04-05T23:49:32.407Z,5.10
2023-04-05T23:51:59.729Z,5.90
2023-04-05T23:54:29.588Z,6.47
2023-04-05T23:56:57.558Z,7.00
2023-04-05T23:59:24.953Z,6.67
